Погода Плугинона неделю

Тверская область, Россия

22 - 28 мая
  • 22мая
    Сегодня
    +7°
    +22°
    Ясно и безоблачно
    ВремяПогодаТемператураВлажностьДавлениеВетер, м/сВероятность осадков
    00:00Ясно и безоблачно+12°C59 %743 мм3.0 м/с2 %
    03:00Ясно и безоблачно+8°C63 %743 мм2.7 м/с2 %
    06:00Ясно и безоблачно+9°C66 %744 мм3.1 м/с2 %
    09:00Ясно и безоблачно+16°C55 %744 мм3.3 м/с2 %
    12:00Ясно и безоблачно+21°C40 %744 мм3.8 м/с2 %
    15:00Ясно и безоблачно+22°C36 %744 мм3.9 м/с2 %
    18:00Ясно и безоблачно+21°C38 %744 мм3.9 м/с2 %
    21:00Ясно и безоблачно+16°C59 %745 мм2.9 м/с2 %
  • 23мая
    Четверг
    +7°
    +20°
    Ясно и безоблачно
    ВремяПогодаТемператураВлажностьДавлениеВетер, м/сВероятность осадков
    00:00Ясно и безоблачно+11°C59 %745 мм3.7 м/с2 %
    03:00Ясно и безоблачно+9°C62 %746 мм3.5 м/с2 %
    06:00Ясно и безоблачно+9°C67 %747 мм3.4 м/с2 %
    09:00Ясно и безоблачно+15°C54 %748 мм3.2 м/с2 %
    12:00Ясно и безоблачно+19°C38 %749 мм4.3 м/с2 %
    15:00Ясно и безоблачно+20°C36 %749 мм3.9 м/с2 %
    18:00Ясно и безоблачно+20°C40 %749 мм4.0 м/с2 %
    21:00Ясно и безоблачно+15°C61 %749 мм2.2 м/с2 %
  • 24мая
    Пятница
    +6°
    +20°
    Ясно и безоблачно
    ВремяПогодаТемператураВлажностьДавлениеВетер, м/сВероятность осадков
    00:00Ясно и безоблачно+10°C62 %750 мм2.8 м/с2 %
    03:00Ясно и безоблачно+8°C64 %750 мм2.7 м/с2 %
    06:00Ясно и безоблачно+8°C65 %751 мм2.6 м/с2 %
    09:00Ясно и безоблачно+15°C46 %752 мм2.9 м/с2 %
    12:00Ясно и безоблачно+18°C39 %752 мм4.3 м/с2 %
    15:00Ясно и безоблачно+19°C37 %751 мм3.9 м/с2 %
    18:00Ясно и безоблачно+19°C36 %750 мм3.4 м/с2 %
    21:00Ясно и безоблачно+14°C53 %750 мм2.8 м/с2 %
  • 25мая
    Суббота
    +9°
    +23°
    Ясно и безоблачно
    ВремяПогодаТемператураВлажностьДавлениеВетер, м/сВероятность осадков
    00:00Ясно и безоблачно+10°C61 %750 мм3.1 м/с2 %
    03:00Ясно и безоблачно+7°C70 %750 мм2.8 м/с2 %
    06:00Ясно и безоблачно+8°C73 %750 мм2.7 м/с2 %
    09:00Ясно и безоблачно+16°C56 %750 мм2.2 м/с2 %
    12:00Практически безоблачно+20°C44 %749 мм2.6 м/с2 %
    15:00Ясно и безоблачно+22°C39 %748 мм3.0 м/с3 %
    18:00Ясно и безоблачно+23°C42 %747 мм2.7 м/с4 %
    21:00Ясно и безоблачно+17°C62 %747 мм2.4 м/с2 %
  • 26мая
    Воскресенье
    +10°
    +25°
    Ясно и безоблачно
    ВремяПогодаТемператураВлажностьДавлениеВетер, м/сВероятность осадков
    00:00Ясно и безоблачно+13°C67 %747 мм2.8 м/с2 %
    03:00Ясно и безоблачно+10°C76 %747 мм2.7 м/с2 %
    06:00Ясно и безоблачно+11°C74 %747 мм2.6 м/с2 %
    09:00Ясно и безоблачно+18°C57 %747 мм2.2 м/с4 %
    12:00Ясно и безоблачно+23°C41 %747 мм1.8 м/с9 %
    15:00Ясно и безоблачно+24°C37 %747 мм1.2 м/с15 %
    18:00Ясно и безоблачно+24°C38 %746 мм0.7 м/с22 %
    21:00Ясно и безоблачно+18°C68 %746 мм1.9 м/с12 %
Мы используем cookies
Соглашаюсь